Station Historical Data
Daily Summary for January 12, 2018 Units:  Both    English   Metric
« Previous Day
Next Day »
Daily Weekly Monthly Yearly Custom
  High: Low: Average:
Temperature: TemperatureF °F /  -17.8 °C 16.6 °F /  -8.6 °C 40.9 °F /  4.9 °C
Dew Point: DewpointF °F /  -17.8 °C 13.7 °F /  -10.2 °C 37.3 °F /  2.9 °C
Humidity: Humidity% 80% 87%
Wind Speed: WindSpeedMPHmph /  0km/h - 5.8mph /  9.3km/h
Wind Gust: WindSpeedGustMPHmph /  0km/h - -
Wind- - WSW
Pressure: PressureIn in /  0 hPa 29.59 in /  1001.9 hPa -
Precipitation: 0.00 in /  0 mm    
Historical Graphs
 
 
Tabular Data for January 12, 2018
Time Temperature Dew Point Pressure Wind Wind Speed Wind Gust Humidity Rainfall Rate (Hourly)
TemperatureF °F /  -17.8 °C DewpointF °F /  -17.8 °C PressureInin /  0hPa Calm     Humidity% HourlyPrecipInin /  0mm
00:04 56.5 °F /  13.6 °C 51.1 °F /  10.6 °C 29.79in /  1008.7hPa South 8.0mph /  12.9km/h 18.0mph /  29km/h 82% 0.00in /  0mm
00:09 56.5 °F /  13.6 °C 51.1 °F /  10.6 °C 29.79in /  1008.7hPa South 13.0mph /  20.9km/h 18.0mph /  29km/h 82% 0.00in /  0mm
00:14 56.6 °F /  13.7 °C 51.2 °F /  10.7 °C 29.78in /  1008.4hPa SSW 11.0mph /  17.7km/h 18.0mph /  29km/h 82% 0.00in /  0mm
00:19 56.8 °F /  13.8 °C 51.4 °F /  10.8 °C 29.78in /  1008.4hPa South 10.0mph /  16.1km/h 17.0mph /  27.4km/h 82% 0.00in /  0mm
00:24 57.1 °F /  13.9 °C 51.3 °F /  10.7 °C 29.78in /  1008.4hPa South 7.0mph /  11.3km/h 19.0mph /  30.6km/h 81% 0.00in /  0mm
00:29 57.3 °F /  14.1 °C 51.2 °F /  10.7 °C 29.78in /  1008.4hPa SSW 8.0mph /  12.9km/h 20.0mph /  32.2km/h 80% 0.00in /  0mm
00:34 57.3 °F /  14.1 °C 51.2 °F /  10.7 °C 29.77in /  1008hPa SSE 7.0mph /  11.3km/h 19.0mph /  30.6km/h 80% 0.00in /  0mm
00:39 57.4 °F /  14.1 °C 51.3 °F /  10.7 °C 29.78in /  1008.4hPa South 16.0mph /  25.7km/h 16.0mph /  25.7km/h 80% 0.00in /  0mm
00:44 57.4 °F /  14.1 °C 51.6 °F /  10.9 °C 29.78in /  1008.4hPa South 14.0mph /  22.5km/h 22.0mph /  35.4km/h 81% 0.00in /  0mm
00:49 57.1 °F /  13.9 °C 51.7 °F /  10.9 °C 29.78in /  1008.4hPa South 9.0mph /  14.5km/h 22.0mph /  35.4km/h 82% 0.01in /  0.25mm
00:54 56.8 °F /  13.8 °C 51.7 °F /  10.9 °C 29.76in /  1007.7hPa South 7.0mph /  11.3km/h 18.0mph /  29km/h 83% 0.01in /  0.25mm
00:59 56.7 °F /  13.7 °C 51.6 °F /  10.9 °C 29.77in /  1008hPa South 7.0mph /  11.3km/h 17.0mph /  27.4km/h 83% 0.01in /  0.25mm
01:04 56.7 °F /  13.7 °C 51.6 °F /  10.9 °C 29.76in /  1007.7hPa South 7.0mph /  11.3km/h 18.0mph /  29km/h 83% 0.01in /  0.25mm
01:09 56.9 °F /  13.8 °C 51.8 °F /  11 °C 29.76in /  1007.7hPa South 8.0mph /  12.9km/h 18.0mph /  29km/h 83% 0.01in /  0.25mm
01:14 57.0 °F /  13.9 °C 51.6 °F /  10.9 °C 29.76in /  1007.7hPa South 7.0mph /  11.3km/h 18.0mph /  29km/h 82% 0.01in /  0.25mm
01:24 57.4 °F /  14.1 °C 51.6 °F /  10.9 °C 29.76in /  1007.7hPa South 15.0mph /  24.1km/h 18.0mph /  29km/h 81% 0.01in /  0.25mm
01:29 57.5 °F /  14.2 °C 51.7 °F /  10.9 °C 29.76in /  1007.7hPa SSE 7.0mph /  11.3km/h 16.0mph /  25.7km/h 81% 0.01in /  0.25mm
01:34 57.8 °F /  14.3 °C 52.0 °F /  11.1 °C 29.75in /  1007.3hPa SSE 7.0mph /  11.3km/h 22.0mph /  35.4km/h 81% 0.01in /  0.25mm
01:39 57.9 °F /  14.4 °C 51.8 °F /  11 °C 29.76in /  1007.7hPa South 12.0mph /  19.3km/h 15.0mph /  24.1km/h 80% 0.01in /  0.25mm
01:44 57.9 °F /  14.4 °C 51.8 °F /  11 °C 29.75in /  1007.3hPa SSW 5.0mph /  8km/h 16.0mph /  25.7km/h 80% 0.01in /  0.25mm
01:49 57.8 °F /  14.3 °C 52.0 °F /  11.1 °C 29.75in /  1007.3hPa South 7.0mph /  11.3km/h 16.0mph /  25.7km/h 81% 0.00in /  0mm
01:54 57.9 °F /  14.4 °C 52.1 °F /  11.2 °C 29.75in /  1007.3hPa South 8.0mph /  12.9km/h 17.0mph /  27.4km/h 81% 0.00in /  0mm
01:59 57.9 °F /  14.4 °C 52.1 °F /  11.2 °C 29.75in /  1007.3hPa South 8.0mph /  12.9km/h 20.0mph /  32.2km/h 81% 0.00in /  0mm
02:09 57.2 °F /  14 °C 52.1 °F /  11.2 °C 29.74in /  1007hPa South 8.0mph /  12.9km/h 15.0mph /  24.1km/h 83% 0.00in /  0mm
02:14 56.9 °F /  13.8 °C 52.1 °F /  11.2 °C 29.74in /  1007hPa South 8.0mph /  12.9km/h 17.0mph /  27.4km/h 84% 0.01in /  0.25mm
02:19 56.8 °F /  13.8 °C 52.0 °F /  11.1 °C 29.74in /  1007hPa South 8.0mph /  12.9km/h 17.0mph /  27.4km/h 84% 0.01in /  0.25mm
02:24 56.6 °F /  13.7 °C 52.1 °F /  11.2 °C 29.73in /  1006.7hPa South 7.0mph /  11.3km/h 16.0mph /  25.7km/h 85% 0.01in /  0.25mm
02:29 56.5 °F /  13.6 °C 52.0 °F /  11.1 °C 29.73in /  1006.7hPa South 7.0mph /  11.3km/h 14.0mph /  22.5km/h 85% 0.01in /  0.25mm
02:34 56.4 °F /  13.6 °C 51.9 °F /  11.1 °C 29.73in /  1006.7hPa South 3.0mph /  4.8km/h 11.0mph /  17.7km/h 85% 0.01in /  0.25mm
02:39 56.4 °F /  13.6 °C 52.3 °F /  11.3 °C 29.73in /  1006.7hPa SSE 5.0mph /  8km/h 16.0mph /  25.7km/h 86% 0.01in /  0.25mm
02:44 56.4 °F /  13.6 °C 52.3 °F /  11.3 °C 29.73in /  1006.7hPa South 4.0mph /  6.4km/h 12.0mph /  19.3km/h 86% 0.01in /  0.25mm
02:49 56.4 °F /  13.6 °C 51.9 °F /  11.1 °C 29.73in /  1006.7hPa SSE 6.0mph /  9.7km/h 13.0mph /  20.9km/h 85% 0.01in /  0.25mm
02:54 56.5 °F /  13.6 °C 52.0 °F /  11.1 °C 29.73in /  1006.7hPa SSW 6.0mph /  9.7km/h 17.0mph /  27.4km/h 85% 0.01in /  0.25mm
02:59 56.6 °F /  13.7 °C 52.1 °F /  11.2 °C 29.73in /  1006.7hPa SSE 2.0mph /  3.2km/h 14.0mph /  22.5km/h 85% 0.02in /  0.51mm
03:04 56.6 °F /  13.7 °C 52.1 °F /  11.2 °C 29.73in /  1006.7hPa SSW 6.0mph /  9.7km/h 14.0mph /  22.5km/h 85% 0.02in /  0.51mm
03:09 56.7 °F /  13.7 °C 52.2 °F /  11.2 °C 29.73in /  1006.7hPa South 6.0mph /  9.7km/h 13.0mph /  20.9km/h 85% 0.03in /  0.76mm
03:14 56.6 °F /  13.7 °C 52.5 °F /  11.4 °C 29.73in /  1006.7hPa South 7.0mph /  11.3km/h 14.0mph /  22.5km/h 86% 0.03in /  0.76mm
03:19 56.5 °F /  13.6 °C 52.4 °F /  11.3 °C 29.73in /  1006.7hPa South 8.0mph /  12.9km/h 14.0mph /  22.5km/h 86% 0.05in /  1.27mm
03:24 56.4 °F /  13.6 °C 52.3 °F /  11.3 °C 29.72in /  1006.3hPa South 7.0mph /  11.3km/h 13.0mph /  20.9km/h 86% 0.06in /  1.52mm
03:29 56.3 °F /  13.5 °C 52.2 °F /  11.2 °C 29.72in /  1006.3hPa South 6.0mph /  9.7km/h 13.0mph /  20.9km/h 86% 0.07in /  1.78mm
03:34 56.3 °F /  13.5 °C 52.5 °F /  11.4 °C 29.71in /  1006hPa SSW 4.0mph /  6.4km/h 10.0mph /  16.1km/h 87% 0.07in /  1.78mm
03:39 56.2 °F /  13.4 °C 52.4 °F /  11.3 °C 29.72in /  1006.3hPa SSW 3.0mph /  4.8km/h 9.0mph /  14.5km/h 87% 0.07in /  1.78mm
03:44 56.2 °F /  13.4 °C 52.4 °F /  11.3 °C 29.71in /  1006hPa South 5.0mph /  8km/h 10.0mph /  16.1km/h 87% 0.07in /  1.78mm
03:49 56.1 °F /  13.4 °C 52.3 °F /  11.3 °C 29.71in /  1006hPa South 11.0mph /  17.7km/h 13.0mph /  20.9km/h 87% 0.07in /  1.78mm
03:54 56.3 °F /  13.5 °C 52.5 °F /  11.4 °C 29.71in /  1006hPa South 6.0mph /  9.7km/h 14.0mph /  22.5km/h 87% 0.07in /  1.78mm
03:59 56.5 °F /  13.6 °C 52.4 °F /  11.3 °C 29.71in /  1006hPa SSE 4.0mph /  6.4km/h 13.0mph /  20.9km/h 86% 0.07in /  1.78mm
04:04 56.6 °F /  13.7 °C 52.5 °F /  11.4 °C 29.71in /  1006hPa SSW 5.0mph /  8km/h 10.0mph /  16.1km/h 86% 0.07in /  1.78mm
04:09 56.8 °F /  13.8 °C 52.7 °F /  11.5 °C 29.70in /  1005.6hPa SSW 8.0mph /  12.9km/h 16.0mph /  25.7km/h 86% 0.07in /  1.78mm
04:14 56.9 °F /  13.8 °C 52.4 °F /  11.3 °C 29.71in /  1006hPa South 8.0mph /  12.9km/h 16.0mph /  25.7km/h 85% 0.06in /  1.52mm
04:19 56.9 °F /  13.8 °C 52.4 °F /  11.3 °C 29.70in /  1005.6hPa SSW 7.0mph /  11.3km/h 16.0mph /  25.7km/h 85% 0.04in /  1.02mm
04:29 56.8 °F /  13.8 °C 52.3 °F /  11.3 °C 29.70in /  1005.6hPa South 6.0mph /  9.7km/h 12.0mph /  19.3km/h 85% 0.03in /  0.76mm
04:34 56.7 °F /  13.7 °C 52.6 °F /  11.4 °C 29.70in /  1005.6hPa South 5.0mph /  8km/h 8.0mph /  12.9km/h 86% 0.04in /  1.02mm
04:39 56.6 °F /  13.7 °C 52.5 °F /  11.4 °C 29.70in /  1005.6hPa South 5.0mph /  8km/h 11.0mph /  17.7km/h 86% 0.04in /  1.02mm
04:44 56.6 °F /  13.7 °C 52.5 °F /  11.4 °C 29.69in /  1005.3hPa South 6.0mph /  9.7km/h 12.0mph /  19.3km/h 86% 0.05in /  1.27mm
04:59 56.6 °F /  13.7 °C 52.8 °F /  11.6 °C 29.68in /  1005hPa South 8.0mph /  12.9km/h 17.0mph /  27.4km/h 87% 0.05in /  1.27mm
05:04 56.6 °F /  13.7 °C 52.5 °F /  11.4 °C 29.68in /  1005hPa South 15.0mph /  24.1km/h 17.0mph /  27.4km/h 86% 0.05in /  1.27mm
05:09 56.6 °F /  13.7 °C 52.5 °F /  11.4 °C 29.68in /  1005hPa SSW 5.0mph /  8km/h 15.0mph /  24.1km/h 86% 0.05in /  1.27mm
05:14 56.6 °F /  13.7 °C 52.8 °F /  11.6 °C 29.68in /  1005hPa SSW 7.0mph /  11.3km/h 17.0mph /  27.4km/h 87% 0.06in /  1.52mm
05:19 56.6 °F /  13.7 °C 52.8 °F /  11.6 °C 29.67in /  1004.6hPa South 8.0mph /  12.9km/h 17.0mph /  27.4km/h 87% 0.07in /  1.78mm
05:24 56.5 °F /  13.6 °C 52.7 °F /  11.5 °C 29.67in /  1004.6hPa SSW 7.0mph /  11.3km/h 11.0mph /  17.7km/h 87% 0.07in /  1.78mm
05:29 56.6 °F /  13.7 °C 52.8 °F /  11.6 °C 29.66in /  1004.3hPa South 9.0mph /  14.5km/h 15.0mph /  24.1km/h 87% 0.07in /  1.78mm
05:34 56.6 °F /  13.7 °C 53.1 °F /  11.7 °C 29.65in /  1003.9hPa SSE 6.0mph /  9.7km/h 11.0mph /  17.7km/h 88% 0.06in /  1.52mm
05:39 56.5 °F /  13.6 °C 53.0 °F /  11.7 °C 29.65in /  1003.9hPa South 7.0mph /  11.3km/h 11.0mph /  17.7km/h 88% 0.07in /  1.78mm
05:44 56.5 °F /  13.6 °C 53.0 °F /  11.7 °C 29.65in /  1003.9hPa SSW 4.0mph /  6.4km/h 9.0mph /  14.5km/h 88% 0.06in /  1.52mm
05:49 56.5 °F /  13.6 °C 53.0 °F /  11.7 °C 29.65in /  1003.9hPa SSW 6.0mph /  9.7km/h 10.0mph /  16.1km/h 88% 0.07in /  1.78mm
05:54 56.5 °F /  13.6 °C 53.0 °F /  11.7 °C 29.65in /  1003.9hPa South 5.0mph /  8km/h 12.0mph /  19.3km/h 88% 0.07in /  1.78mm
05:59 56.5 °F /  13.6 °C 53.0 °F /  11.7 °C 29.65in /  1003.9hPa South 5.0mph /  8km/h 12.0mph /  19.3km/h 88% 0.06in /  1.52mm
06:04 56.5 °F /  13.6 °C 53.0 °F /  11.7 °C 29.65in /  1003.9hPa South 4.0mph /  6.4km/h 9.0mph /  14.5km/h 88% 0.06in /  1.52mm
06:14 56.5 °F /  13.6 °C 53.0 °F /  11.7 °C 29.64in /  1003.6hPa South 4.0mph /  6.4km/h 8.0mph /  12.9km/h 88% 0.04in /  1.02mm
06:19 56.5 °F /  13.6 °C 53.0 °F /  11.7 °C 29.64in /  1003.6hPa SW 9.0mph /  14.5km/h 11.0mph /  17.7km/h 88% 0.03in /  0.76mm
06:24 56.6 °F /  13.7 °C 53.1 °F /  11.7 °C 29.65in /  1003.9hPa SSW 6.0mph /  9.7km/h 11.0mph /  17.7km/h 88% 0.03in /  0.76mm
06:29 56.8 °F /  13.8 °C 53.3 °F /  11.8 °C 29.65in /  1003.9hPa South 3.0mph /  4.8km/h 16.0mph /  25.7km/h 88% 0.02in /  0.51mm
06:39 56.9 °F /  13.8 °C 53.1 °F /  11.7 °C 29.64in /  1003.6hPa SSW 6.0mph /  9.7km/h 13.0mph /  20.9km/h 87% 0.01in /  0.25mm
06:44 56.9 °F /  13.8 °C 53.1 °F /  11.7 °C 29.63in /  1003.3hPa SSW 5.0mph /  8km/h 10.0mph /  16.1km/h 87% 0.01in /  0.25mm
06:49 56.9 °F /  13.8 °C 53.1 °F /  11.7 °C 29.63in /  1003.3hPa South 8.0mph /  12.9km/h 8.0mph /  12.9km/h 87% 0.00in /  0mm
06:54 56.9 °F /  13.8 °C 53.1 °F /  11.7 °C 29.62in /  1002.9hPa South 6.0mph /  9.7km/h 9.0mph /  14.5km/h 87% 0.00in /  0mm
06:59 56.8 °F /  13.8 °C 52.7 °F /  11.5 °C 29.62in /  1002.9hPa South 5.0mph /  8km/h 9.0mph /  14.5km/h 86% 0.01in /  0.25mm
07:04 56.8 °F /  13.8 °C 53.0 °F /  11.7 °C 29.62in /  1002.9hPa South 4.0mph /  6.4km/h 8.0mph /  12.9km/h 87% 0.01in /  0.25mm
07:09 56.6 °F /  13.7 °C 52.8 °F /  11.6 °C 29.62in /  1002.9hPa SSW 3.0mph /  4.8km/h 6.0mph /  9.7km/h 87% 0.01in /  0.25mm
07:14 56.6 °F /  13.7 °C 52.8 °F /  11.6 °C 29.62in /  1002.9hPa South 4.0mph /  6.4km/h 7.0mph /  11.3km/h 87% 0.01in /  0.25mm
07:19 56.6 °F /  13.7 °C 52.8 °F /  11.6 °C 29.62in /  1002.9hPa South 4.0mph /  6.4km/h 10.0mph /  16.1km/h 87% 0.01in /  0.25mm
07:24 56.7 °F /  13.7 °C 52.9 °F /  11.6 °C 29.62in /  1002.9hPa SSW 6.0mph /  9.7km/h 10.0mph /  16.1km/h 87% 0.01in /  0.25mm
07:29 56.8 °F /  13.8 °C 53.0 °F /  11.7 °C 29.62in /  1002.9hPa WSW 6.0mph /  9.7km/h 6.0mph /  9.7km/h 87% 0.01in /  0.25mm
07:34 56.9 °F /  13.8 °C 53.1 °F /  11.7 °C 29.62in /  1002.9hPa SSW 4.0mph /  6.4km/h 11.0mph /  17.7km/h 87% 0.01in /  0.25mm
07:44 57.0 °F /  13.9 °C 53.2 °F /  11.8 °C 29.62in /  1002.9hPa SSW 5.0mph /  8km/h 10.0mph /  16.1km/h 87% 0.02in /  0.51mm
07:49 56.9 °F /  13.8 °C 53.1 °F /  11.7 °C 29.62in /  1002.9hPa SW 3.0mph /  4.8km/h 7.0mph /  11.3km/h 87% 0.02in /  0.51mm
07:54 57.0 °F /  13.9 °C 53.2 °F /  11.8 °C 29.61in /  1002.6hPa South 4.0mph /  6.4km/h 7.0mph /  11.3km/h 87% 0.02in /  0.51mm
07:59 56.9 °F /  13.8 °C 53.1 °F /  11.7 °C 29.62in /  1002.9hPa SSW 3.0mph /  4.8km/h 7.0mph /  11.3km/h 87% 0.01in /  0.25mm
08:04 56.9 °F /  13.8 °C 53.1 °F /  11.7 °C 29.61in /  1002.6hPa SSW 3.0mph /  4.8km/h 7.0mph /  11.3km/h 87% 0.01in /  0.25mm
08:09 56.9 °F /  13.8 °C 53.1 °F /  11.7 °C 29.61in /  1002.6hPa SSW 3.0mph /  4.8km/h 8.0mph /  12.9km/h 87% 0.01in /  0.25mm
08:14 57.0 °F /  13.9 °C 53.2 °F /  11.8 °C 29.61in /  1002.6hPa SSW 4.0mph /  6.4km/h 8.0mph /  12.9km/h 87% 0.01in /  0.25mm
08:19 57.0 °F /  13.9 °C 53.2 °F /  11.8 °C 29.61in /  1002.6hPa SSW 4.0mph /  6.4km/h 10.0mph /  16.1km/h 87% 0.01in /  0.25mm
08:24 57.1 °F /  13.9 °C 53.3 °F /  11.8 °C 29.61in /  1002.6hPa SSW 4.0mph /  6.4km/h 10.0mph /  16.1km/h 87% 0.01in /  0.25mm
08:29 57.2 °F /  14 °C 53.4 °F /  11.9 °C 29.61in /  1002.6hPa Calm   9.0mph /  14.5km/h 87% 0.02in /  0.51mm
08:39 57.2 °F /  14 °C 53.4 °F /  11.9 °C 29.61in /  1002.6hPa SSW 2.0mph /  3.2km/h 9.0mph /  14.5km/h 87% 0.01in /  0.25mm
08:49 57.1 °F /  13.9 °C 53.6 °F /  12 °C 29.61in /  1002.6hPa SSW 3.0mph /  4.8km/h 8.0mph /  12.9km/h 88% 0.01in /  0.25mm
08:54 57.1 °F /  13.9 °C 53.6 °F /  12 °C 29.61in /  1002.6hPa SSW 2.0mph /  3.2km/h 8.0mph /  12.9km/h 88% 0.01in /  0.25mm
08:59 57.1 °F /  13.9 °C 53.6 °F /  12 °C 29.61in /  1002.6hPa SSW 4.0mph /  6.4km/h 7.0mph /  11.3km/h 88% 0.01in /  0.25mm
09:04 57.1 °F /  13.9 °C 53.6 °F /  12 °C 29.61in /  1002.6hPa South 5.0mph /  8km/h 6.0mph /  9.7km/h 88% 0.01in /  0.25mm
09:09 57.3 °F /  14.1 °C 53.8 °F /  12.1 °C 29.61in /  1002.6hPa SW 3.0mph /  4.8km/h 7.0mph /  11.3km/h 88% 0.01in /  0.25mm
09:14 57.4 °F /  14.1 °C 53.6 °F /  12 °C 29.61in /  1002.6hPa SSW 3.0mph /  4.8km/h 7.0mph /  11.3km/h 87% 0.01in /  0.25mm
09:19 57.5 °F /  14.2 °C 53.7 °F /  12.1 °C 29.61in /  1002.6hPa SSW 4.0mph /  6.4km/h 11.0mph /  17.7km/h 87% 0.01in /  0.25mm
09:24 57.8 °F /  14.3 °C 54.0 °F /  12.2 °C 29.61in /  1002.6hPa SSW 5.0mph /  8km/h 11.0mph /  17.7km/h 87% 0.01in /  0.25mm
09:29 57.9 °F /  14.4 °C 54.1 °F /  12.3 °C 29.61in /  1002.6hPa SSW 5.0mph /  8km/h 9.0mph /  14.5km/h 87% 0.00in /  0mm
09:34 58.0 °F /  14.4 °C 54.2 °F /  12.3 °C 29.61in /  1002.6hPa SSW 5.0mph /  8km/h 13.0mph /  20.9km/h 87% 0.00in /  0mm
09:39 58.3 °F /  14.6 °C 54.1 °F /  12.3 °C 29.60in /  1002.3hPa SSW 7.0mph /  11.3km/h 10.0mph /  16.1km/h 86% 0.00in /  0mm
09:44 58.5 °F /  14.7 °C 54.3 °F /  12.4 °C 29.60in /  1002.3hPa South 5.0mph /  8km/h 9.0mph /  14.5km/h 86% 0.00in /  0mm
09:49 58.7 °F /  14.8 °C 54.2 °F /  12.3 °C 29.60in /  1002.3hPa SSW 6.0mph /  9.7km/h 12.0mph /  19.3km/h 85% 0.00in /  0mm
09:54 58.9 °F /  14.9 °C 54.4 °F /  12.4 °C 29.60in /  1002.3hPa SSW 6.0mph /  9.7km/h 12.0mph /  19.3km/h 85% 0.00in /  0mm
09:59 59.2 °F /  15.1 °C 54.4 °F /  12.4 °C 29.60in /  1002.3hPa SSW 5.0mph /  8km/h 15.0mph /  24.1km/h 84% 0.00in /  0mm
10:04 59.4 °F /  15.2 °C 54.6 °F /  12.6 °C 29.60in /  1002.3hPa SSW 7.0mph /  11.3km/h 15.0mph /  24.1km/h 84% 0.00in /  0mm
10:09 59.4 °F /  15.2 °C 54.2 °F /  12.3 °C 29.60in /  1002.3hPa South 4.0mph /  6.4km/h 10.0mph /  16.1km/h 83% 0.00in /  0mm
10:14 59.6 °F /  15.3 °C 54.4 °F /  12.4 °C 29.60in /  1002.3hPa South 6.0mph /  9.7km/h 14.0mph /  22.5km/h 83% 0.00in /  0mm
10:19 59.6 °F /  15.3 °C 54.4 °F /  12.4 °C 29.60in /  1002.3hPa South 3.0mph /  4.8km/h 11.0mph /  17.7km/h 83% 0.00in /  0mm
10:24 59.6 °F /  15.3 °C 54.1 °F /  12.3 °C 29.60in /  1002.3hPa SSW 5.0mph /  8km/h 11.0mph /  17.7km/h 82% 0.00in /  0mm
10:29 59.6 °F /  15.3 °C 54.1 °F /  12.3 °C 29.60in /  1002.3hPa SSW 5.0mph /  8km/h 9.0mph /  14.5km/h 82% 0.00in /  0mm
10:34 59.5 °F /  15.3 °C 54.0 °F /  12.2 °C 29.60in /  1002.3hPa SW 5.0mph /  8km/h 9.0mph /  14.5km/h 82% 0.00in /  0mm
10:39 59.3 °F /  15.2 °C 53.8 °F /  12.1 °C 29.60in /  1002.3hPa SW 5.0mph /  8km/h 8.0mph /  12.9km/h 82% 0.00in /  0mm
10:44 58.3 °F /  14.6 °C 52.5 °F /  11.4 °C 29.60in /  1002.3hPa WSW 8.0mph /  12.9km/h 9.0mph /  14.5km/h 81% 0.00in /  0mm
10:49 56.9 °F /  13.8 °C 51.5 °F /  10.8 °C 29.60in /  1002.3hPa WSW 7.0mph /  11.3km/h 9.0mph /  14.5km/h 82% 0.00in /  0mm
10:54 55.9 °F /  13.3 °C 50.8 °F /  10.4 °C 29.60in /  1002.3hPa WSW 2.0mph /  3.2km/h 9.0mph /  14.5km/h 83% 0.00in /  0mm
10:59 55.3 °F /  12.9 °C 50.5 °F /  10.3 °C 29.59in /  1001.9hPa WSW 5.0mph /  8km/h 9.0mph /  14.5km/h 84% 0.00in /  0mm
11:04 54.8 °F /  12.7 °C 50.7 °F /  10.4 °C 29.61in /  1002.6hPa West 4.0mph /  6.4km/h 10.0mph /  16.1km/h 86% 0.00in /  0mm
11:19 47.5 °F /  8.6 °C 42.3 °F /  5.7 °C 29.64in /  1003.6hPa NW 4.0mph /  6.4km/h 22.0mph /  35.4km/h 82% 0.09in /  2.29mm
11:29 43.9 °F /  6.6 °C 39.7 °F /  4.3 °C 29.64in /  1003.6hPa NW 9.0mph /  14.5km/h 15.0mph /  24.1km/h 85% 0.13in /  3.3mm
11:34 43.2 °F /  6.2 °C 39.6 °F /  4.2 °C 29.64in /  1003.6hPa NNW 7.0mph /  11.3km/h 15.0mph /  24.1km/h 87% 0.14in /  3.56mm
11:39 42.7 °F /  5.9 °C 39.1 °F /  3.9 °C 29.64in /  1003.6hPa NNW 5.0mph /  8km/h 17.0mph /  27.4km/h 87% 0.14in /  3.56mm
11:44 42.1 °F /  5.6 °C 38.5 °F /  3.6 °C 29.65in /  1003.9hPa NNW 6.0mph /  9.7km/h 17.0mph /  27.4km/h 87% 0.15in /  3.81mm
11:49 41.7 °F /  5.4 °C 38.4 °F /  3.6 °C 29.65in /  1003.9hPa NNW 6.0mph /  9.7km/h 15.0mph /  24.1km/h 88% 0.15in /  3.81mm
11:54 41.2 °F /  5.1 °C 37.9 °F /  3.3 °C 29.66in /  1004.3hPa NNE 6.0mph /  9.7km/h 14.0mph /  22.5km/h 88% 0.15in /  3.81mm
11:59 40.9 °F /  4.9 °C 37.6 °F /  3.1 °C 29.65in /  1003.9hPa NW 4.0mph /  6.4km/h 8.0mph /  12.9km/h 88% 0.15in /  3.81mm
12:04 40.5 °F /  4.7 °C 37.2 °F /  2.9 °C 29.65in /  1003.9hPa North 6.0mph /  9.7km/h 14.0mph /  22.5km/h 88% 0.15in /  3.81mm
12:09 40.0 °F /  4.4 °C 36.7 °F /  2.6 °C 29.66in /  1004.3hPa North 8.0mph /  12.9km/h 17.0mph /  27.4km/h 88% 0.14in /  3.56mm
12:14 39.7 °F /  4.3 °C 36.4 °F /  2.4 °C 29.66in /  1004.3hPa NNW 7.0mph /  11.3km/h 17.0mph /  27.4km/h 88% 0.08in /  2.03mm
12:19 39.3 °F /  4.1 °C 36.0 °F /  2.2 °C 29.66in /  1004.3hPa North 8.0mph /  12.9km/h 19.0mph /  30.6km/h 88% 0.06in /  1.52mm
12:24 38.9 °F /  3.8 °C 35.6 °F /  2 °C 29.66in /  1004.3hPa North 9.0mph /  14.5km/h 14.0mph /  22.5km/h 88% 0.04in /  1.02mm
12:29 38.8 °F /  3.8 °C 35.8 °F /  2.1 °C 29.67in /  1004.6hPa NNE 10.0mph /  16.1km/h 16.0mph /  25.7km/h 89% 0.03in /  0.76mm
12:34 38.6 °F /  3.7 °C 35.4 °F /  1.9 °C 29.67in /  1004.6hPa NNW 5.0mph /  8km/h 16.0mph /  25.7km/h 88% 0.02in /  0.51mm
12:39 38.4 °F /  3.6 °C 35.4 °F /  1.9 °C 29.67in /  1004.6hPa North 6.0mph /  9.7km/h 12.0mph /  19.3km/h 89% 0.02in /  0.51mm
12:44 38.1 °F /  3.4 °C 35.1 °F /  1.7 °C 29.67in /  1004.6hPa NNW 6.0mph /  9.7km/h 16.0mph /  25.7km/h 89% 0.01in /  0.25mm
12:49 38.0 °F /  3.3 °C 35.0 °F /  1.7 °C 29.67in /  1004.6hPa NNW 7.0mph /  11.3km/h 16.0mph /  25.7km/h 89% 0.02in /  0.51mm
12:54 37.8 °F /  3.2 °C 34.8 °F /  1.6 °C 29.67in /  1004.6hPa North 7.0mph /  11.3km/h 16.0mph /  25.7km/h 89% 0.02in /  0.51mm
12:59 37.5 °F /  3.1 °C 34.6 °F /  1.4 °C 29.68in /  1005hPa North 7.0mph /  11.3km/h 16.0mph /  25.7km/h 89% 0.02in /  0.51mm
13:04 37.4 °F /  3 °C 34.5 °F /  1.4 °C 29.69in /  1005.3hPa North 6.0mph /  9.7km/h 12.0mph /  19.3km/h 89% 0.02in /  0.51mm
13:14 36.9 °F /  2.7 °C 34.0 °F /  1.1 °C 29.69in /  1005.3hPa North 5.0mph /  8km/h 13.0mph /  20.9km/h 89% 0.02in /  0.51mm
13:19 36.6 °F /  2.6 °C 33.7 °F /  0.9 °C 29.70in /  1005.6hPa North 6.0mph /  9.7km/h 14.0mph /  22.5km/h 89% 0.02in /  0.51mm
13:24 36.6 °F /  2.6 °C 33.7 °F /  0.9 °C 29.71in /  1006hPa North 6.0mph /  9.7km/h 14.0mph /  22.5km/h 89% 0.03in /  0.76mm
13:34 36.6 °F /  2.6 °C 33.7 °F /  0.9 °C 29.71in /  1006hPa North 7.0mph /  11.3km/h 7.0mph /  11.3km/h 89% 0.05in /  1.27mm
13:39 36.2 °F /  2.3 °C 33.3 °F /  0.7 °C 29.70in /  1005.6hPa North 7.0mph /  11.3km/h 17.0mph /  27.4km/h 89% 0.05in /  1.27mm
13:44 36.1 °F /  2.3 °C 33.2 °F /  0.7 °C 29.71in /  1006hPa NW 5.0mph /  8km/h 11.0mph /  17.7km/h 89% 0.06in /  1.52mm
13:49 36.0 °F /  2.2 °C 33.1 °F /  0.6 °C 29.71in /  1006hPa North 1.0mph /  1.6km/h 12.0mph /  19.3km/h 89% 0.05in /  1.27mm
13:54 36.1 °F /  2.3 °C 33.5 °F /  0.8 °C 29.71in /  1006hPa North 4.0mph /  6.4km/h 12.0mph /  19.3km/h 90% 0.05in /  1.27mm
13:59 36.1 °F /  2.3 °C 33.5 °F /  0.8 °C 29.72in /  1006.3hPa North 3.0mph /  4.8km/h 8.0mph /  12.9km/h 90% 0.06in /  1.52mm
14:04 35.9 °F /  2.2 °C 33.0 °F /  0.6 °C 29.74in /  1007hPa NNW 4.0mph /  6.4km/h 9.0mph /  14.5km/h 89% 0.06in /  1.52mm
14:09 35.9 °F /  2.2 °C 33.3 °F /  0.7 °C 29.74in /  1007hPa WNW 6.0mph /  9.7km/h 11.0mph /  17.7km/h 90% 0.06in /  1.52mm
14:14 36.0 °F /  2.2 °C 33.4 °F /  0.8 °C 29.75in /  1007.3hPa NW 3.0mph /  4.8km/h 9.0mph /  14.5km/h 90% 0.07in /  1.78mm
14:19 35.5 °F /  1.9 °C 32.6 °F /  0.3 °C 29.75in /  1007.3hPa NW 5.0mph /  8km/h 14.0mph /  22.5km/h 89% 0.08in /  2.03mm
14:24 35.1 °F /  1.7 °C 32.2 °F /  0.1 °C 29.75in /  1007.3hPa NW 6.0mph /  9.7km/h 14.0mph /  22.5km/h 89% 0.08in /  2.03mm
14:29 34.8 °F /  1.6 °C 31.9 °F /  -0.1 °C 29.75in /  1007.3hPa NW 5.0mph /  8km/h 13.0mph /  20.9km/h 89% 0.07in /  1.78mm
14:34 34.7 °F /  1.5 °C 31.8 °F /  -0.1 °C 29.76in /  1007.7hPa NNW 5.0mph /  8km/h 13.0mph /  20.9km/h 89% 0.05in /  1.27mm
14:39 34.6 °F /  1.4 °C 32.0 °F /  0 °C 29.76in /  1007.7hPa NNW 4.0mph /  6.4km/h 13.0mph /  20.9km/h 90% 0.06in /  1.52mm
14:44 34.3 °F /  1.3 °C 31.4 °F /  -0.3 °C 29.77in /  1008hPa NW 6.0mph /  9.7km/h 10.0mph /  16.1km/h 89% 0.05in /  1.27mm
14:49 33.7 °F /  0.9 °C 30.8 °F /  -0.7 °C 29.77in /  1008hPa North 6.0mph /  9.7km/h 15.0mph /  24.1km/h 89% 0.05in /  1.27mm
14:54 33.3 °F /  0.7 °C 30.4 °F /  -0.9 °C 29.77in /  1008hPa WNW 6.0mph /  9.7km/h 9.0mph /  14.5km/h 89% 0.05in /  1.27mm
14:59 32.9 °F /  0.5 °C 30.0 °F /  -1.1 °C 29.77in /  1008hPa NW 5.0mph /  8km/h 11.0mph /  17.7km/h 89% 0.04in /  1.02mm
15:04 32.4 °F /  0.2 °C 29.5 °F /  -1.4 °C 29.77in /  1008hPa NW 6.0mph /  9.7km/h 13.0mph /  20.9km/h 89% 0.05in /  1.27mm
15:09 32.2 °F /  0.1 °C 29.3 °F /  -1.5 °C 29.78in /  1008.4hPa NW 5.0mph /  8km/h 13.0mph /  20.9km/h 89% 0.05in /  1.27mm
15:14 31.9 °F /  -0.1 °C 29.0 °F /  -1.7 °C 29.79in /  1008.7hPa WNW 9.0mph /  14.5km/h 11.0mph /  17.7km/h 89% 0.05in /  1.27mm
15:19 31.8 °F /  -0.1 °C 28.9 °F /  -1.7 °C 29.79in /  1008.7hPa NNW 9.0mph /  14.5km/h 11.0mph /  17.7km/h 89% 0.04in /  1.02mm
15:24 31.5 °F /  -0.3 °C 28.6 °F /  -1.9 °C 29.79in /  1008.7hPa NNW 6.0mph /  9.7km/h 11.0mph /  17.7km/h 89% 0.04in /  1.02mm
15:29 31.3 °F /  -0.4 °C 28.4 °F /  -2 °C 29.80in /  1009hPa North 5.0mph /  8km/h 10.0mph /  16.1km/h 89% 0.05in /  1.27mm
15:34 31.1 °F /  -0.5 °C 28.2 °F /  -2.1 °C 29.80in /  1009hPa NW 5.0mph /  8km/h 14.0mph /  22.5km/h 89% 0.06in /  1.52mm
15:39 30.9 °F /  -0.6 °C 28.0 °F /  -2.2 °C 29.81in /  1009.4hPa NW 5.0mph /  8km/h 14.0mph /  22.5km/h 89% 0.05in /  1.27mm
15:44 30.4 °F /  -0.9 °C 27.5 °F /  -2.5 °C 29.81in /  1009.4hPa NW 4.0mph /  6.4km/h 13.0mph /  20.9km/h 89% 0.05in /  1.27mm
15:49 30.1 °F /  -1.1 °C 27.3 °F /  -2.6 °C 29.82in /  1009.7hPa WNW 6.0mph /  9.7km/h 13.0mph /  20.9km/h 89% 0.05in /  1.27mm
15:54 29.9 °F /  -1.2 °C 27.1 °F /  -2.7 °C 29.83in /  1010hPa WNW 6.0mph /  9.7km/h 11.0mph /  17.7km/h 89% 0.05in /  1.27mm
15:59 29.8 °F /  -1.2 °C 27.0 °F /  -2.8 °C 29.83in /  1010hPa NNW 3.0mph /  4.8km/h 12.0mph /  19.3km/h 89% 0.06in /  1.52mm
16:04 29.8 °F /  -1.2 °C 27.0 °F /  -2.8 °C 29.83in /  1010hPa NNW 4.0mph /  6.4km/h 10.0mph /  16.1km/h 89% 0.05in /  1.27mm
16:09 29.6 °F /  -1.3 °C 26.8 °F /  -2.9 °C 29.83in /  1010hPa NW 5.0mph /  8km/h 10.0mph /  16.1km/h 89% 0.05in /  1.27mm
16:14 29.4 °F /  -1.4 °C 26.6 °F /  -3 °C 29.83in /  1010hPa NW 4.0mph /  6.4km/h 10.0mph /  16.1km/h 89% 0.04in /  1.02mm
16:19 29.2 °F /  -1.6 °C 26.4 °F /  -3.1 °C 29.84in /  1010.4hPa NW 3.0mph /  4.8km/h 12.0mph /  19.3km/h 89% 0.04in /  1.02mm
16:24 28.7 °F /  -1.8 °C 25.9 °F /  -3.4 °C 29.84in /  1010.4hPa North 7.0mph /  11.3km/h 11.0mph /  17.7km/h 89% 0.03in /  0.76mm
16:29 28.3 °F /  -2.1 °C 25.5 °F /  -3.6 °C 29.85in /  1010.7hPa NW 5.0mph /  8km/h 7.0mph /  11.3km/h 89% 0.02in /  0.51mm
16:34 28.0 °F /  -2.2 °C 25.2 °F /  -3.8 °C 29.85in /  1010.7hPa WNW 9.0mph /  14.5km/h 10.0mph /  16.1km/h 89% 0.01in /  0.25mm
16:39 27.6 °F /  -2.4 °C 24.5 °F /  -4.2 °C 29.86in /  1011.1hPa NW 5.0mph /  8km/h 11.0mph /  17.7km/h 88% 0.01in /  0.25mm
16:44 27.0 °F /  -2.8 °C 23.9 °F /  -4.5 °C 29.87in /  1011.4hPa NW 5.0mph /  8km/h 11.0mph /  17.7km/h 88% 0.01in /  0.25mm
16:49 26.9 °F /  -2.8 °C 24.1 °F /  -4.4 °C 29.88in /  1011.7hPa NW 5.0mph /  8km/h 11.0mph /  17.7km/h 89% 0.01in /  0.25mm
16:59 26.4 °F /  -3.1 °C 23.3 °F /  -4.8 °C 29.88in /  1011.7hPa NNW 7.0mph /  11.3km/h 14.0mph /  22.5km/h 88% 0.00in /  0mm
17:04 25.9 °F /  -3.4 °C 22.8 °F /  -5.1 °C 29.88in /  1011.7hPa West 7.0mph /  11.3km/h 14.0mph /  22.5km/h 88% 0.00in /  0mm
17:09 25.5 °F /  -3.6 °C 22.4 °F /  -5.3 °C 29.87in /  1011.4hPa NNW 4.0mph /  6.4km/h 12.0mph /  19.3km/h 88% 0.00in /  0mm
17:14 25.2 °F /  -3.8 °C 22.1 °F /  -5.5 °C 29.86in /  1011.1hPa NNW 6.0mph /  9.7km/h 14.0mph /  22.5km/h 88% 0.00in /  0mm
17:19 24.9 °F /  -3.9 °C 21.8 °F /  -5.7 °C 29.86in /  1011.1hPa NNW 6.0mph /  9.7km/h 14.0mph /  22.5km/h 88% 0.00in /  0mm
17:24 24.6 °F /  -4.1 °C 21.6 °F /  -5.8 °C 29.86in /  1011.1hPa NNW 5.0mph /  8km/h 13.0mph /  20.9km/h 88% 0.00in /  0mm
17:29 24.3 °F /  -4.3 °C 21.3 °F /  -5.9 °C 29.87in /  1011.4hPa NNW 4.0mph /  6.4km/h 11.0mph /  17.7km/h 88% 0.00in /  0mm
17:34 24.0 °F /  -4.4 °C 21.0 °F /  -6.1 °C 29.88in /  1011.7hPa NW 4.0mph /  6.4km/h 10.0mph /  16.1km/h 88% 0.00in /  0mm
17:49 23.3 °F /  -4.8 °C 20.3 °F /  -6.5 °C 29.88in /  1011.7hPa NNW 5.0mph /  8km/h 11.0mph /  17.7km/h 88% 0.00in /  0mm
17:54 23.2 °F /  -4.9 °C 20.4 °F /  -6.4 °C 29.88in /  1011.7hPa NNW 5.0mph /  8km/h 11.0mph /  17.7km/h 89% 0.00in /  0mm
17:59 23.2 °F /  -4.9 °C 20.4 °F /  -6.4 °C 29.89in /  1012.1hPa NNW 4.0mph /  6.4km/h 8.0mph /  12.9km/h 89% 0.00in /  0mm
18:04 23.0 °F /  -5 °C 20.0 °F /  -6.7 °C 29.89in /  1012.1hPa NNW 5.0mph /  8km/h 13.0mph /  20.9km/h 88% 0.00in /  0mm
18:09 22.7 °F /  -5.2 °C 19.7 °F /  -6.8 °C 29.90in /  1012.4hPa NNW 7.0mph /  11.3km/h 14.0mph /  22.5km/h 88% 0.00in /  0mm
18:14 22.4 °F /  -5.3 °C 19.4 °F /  -7 °C 29.90in /  1012.4hPa NNW 7.0mph /  11.3km/h 14.0mph /  22.5km/h 88% 0.00in /  0mm
18:19 22.2 °F /  -5.4 °C 19.5 °F /  -6.9 °C 29.90in /  1012.4hPa North 4.0mph /  6.4km/h 11.0mph /  17.7km/h 89% 0.00in /  0mm
18:24 22.1 °F /  -5.5 °C 19.1 °F /  -7.2 °C 29.90in /  1012.4hPa NW 3.0mph /  4.8km/h 13.0mph /  20.9km/h 88% 0.00in /  0mm
18:34 21.9 °F /  -5.6 °C 19.2 °F /  -7.1 °C 29.91in /  1012.8hPa NNW 5.0mph /  8km/h 11.0mph /  17.7km/h 89% 0.00in /  0mm
18:39 21.9 °F /  -5.6 °C 19.2 °F /  -7.1 °C 29.93in /  1013.4hPa NNW 5.0mph /  8km/h 8.0mph /  12.9km/h 89% 0.00in /  0mm
18:44 21.9 °F /  -5.6 °C 19.2 °F /  -7.1 °C 29.93in /  1013.4hPa NNW 7.0mph /  11.3km/h 14.0mph /  22.5km/h 89% 0.00in /  0mm
18:49 21.8 °F /  -5.7 °C 18.8 °F /  -7.3 °C 29.93in /  1013.4hPa NNW 9.0mph /  14.5km/h 12.0mph /  19.3km/h 88% 0.00in /  0mm
18:54 21.5 °F /  -5.8 °C 18.5 °F /  -7.5 °C 29.93in /  1013.4hPa North 7.0mph /  11.3km/h 12.0mph /  19.3km/h 88% 0.00in /  0mm
18:59 21.3 °F /  -5.9 °C 18.3 °F /  -7.6 °C 29.93in /  1013.4hPa North 8.0mph /  12.9km/h 13.0mph /  20.9km/h 88% 0.00in /  0mm
19:04 20.8 °F /  -6.2 °C 17.8 °F /  -7.9 °C 29.93in /  1013.4hPa North 7.0mph /  11.3km/h 16.0mph /  25.7km/h 88% 0.00in /  0mm
19:14 20.4 °F /  -6.4 °C 17.4 °F /  -8.1 °C 29.95in /  1014.1hPa NNW 6.0mph /  9.7km/h 15.0mph /  24.1km/h 88% 0.00in /  0mm
19:19 20.3 °F /  -6.5 °C 17.3 °F /  -8.2 °C 29.95in /  1014.1hPa NNW 5.0mph /  8km/h 13.0mph /  20.9km/h 88% 0.00in /  0mm
19:24 20.3 °F /  -6.5 °C 17.3 °F /  -8.2 °C 29.98in /  1015.1hPa North 4.0mph /  6.4km/h 9.0mph /  14.5km/h 88% 0.00in /  0mm
19:29 20.1 °F /  -6.6 °C 17.1 °F /  -8.3 °C 29.99in /  1015.5hPa NW 2.0mph /  3.2km/h 8.0mph /  12.9km/h 88% 0.00in /  0mm
19:34 20.1 °F /  -6.6 °C 17.4 °F /  -8.1 °C 29.98in /  1015.1hPa NW 8.0mph /  12.9km/h 10.0mph /  16.1km/h 89% 0.00in /  0mm
19:39 19.9 °F /  -6.7 °C 16.9 °F /  -8.4 °C 29.98in /  1015.1hPa NNW 6.0mph /  9.7km/h 16.0mph /  25.7km/h 88% 0.00in /  0mm
19:49 19.6 °F /  -6.9 °C 16.6 °F /  -8.6 °C 29.98in /  1015.1hPa North 6.0mph /  9.7km/h 12.0mph /  19.3km/h 88% 0.00in /  0mm
19:54 19.4 °F /  -7 °C 16.4 °F /  -8.7 °C 29.98in /  1015.1hPa NNW 9.0mph /  14.5km/h 13.0mph /  20.9km/h 88% 0.00in /  0mm
20:04 19.1 °F /  -7.2 °C 16.1 °F /  -8.8 °C 29.97in /  1014.8hPa NNE 3.0mph /  4.8km/h 13.0mph /  20.9km/h 88% 0.00in /  0mm
20:09 19.0 °F /  -7.2 °C 16.0 °F /  -8.9 °C 29.97in /  1014.8hPa North 5.0mph /  8km/h 13.0mph /  20.9km/h 88% 0.00in /  0mm
20:14 19.0 °F /  -7.2 °C 16.3 °F /  -8.7 °C 29.96in /  1014.4hPa North 3.0mph /  4.8km/h 8.0mph /  12.9km/h 89% 0.00in /  0mm
20:19 19.0 °F /  -7.2 °C 16.3 °F /  -8.7 °C 29.95in /  1014.1hPa North 5.0mph /  8km/h 8.0mph /  12.9km/h 89% 0.00in /  0mm
20:24 18.9 °F /  -7.3 °C 16.2 °F /  -8.8 °C 29.95in /  1014.1hPa North 4.0mph /  6.4km/h 8.0mph /  12.9km/h 89% 0.00in /  0mm
20:29 18.8 °F /  -7.3 °C 16.1 °F /  -8.8 °C 29.95in /  1014.1hPa North 4.0mph /  6.4km/h 8.0mph /  12.9km/h 89% 0.00in /  0mm
20:39 18.6 °F /  -7.4 °C 15.9 °F /  -8.9 °C 29.95in /  1014.1hPa NNE 5.0mph /  8km/h 9.0mph /  14.5km/h 89% 0.00in /  0mm
20:44 18.6 °F /  -7.4 °C 15.6 °F /  -9.1 °C 29.95in /  1014.1hPa NNE 5.0mph /  8km/h 9.0mph /  14.5km/h 88% 0.00in /  0mm
20:49 18.5 °F /  -7.5 °C 15.5 °F /  -9.2 °C 29.95in /  1014.1hPa NNE 5.0mph /  8km/h 11.0mph /  17.7km/h 88% 0.00in /  0mm
20:54 18.5 °F /  -7.5 °C 15.5 °F /  -9.2 °C 29.94in /  1013.8hPa NNE 5.0mph /  8km/h 14.0mph /  22.5km/h 88% 0.00in /  0mm
20:59 18.4 °F /  -7.6 °C 15.4 °F /  -9.2 °C 29.94in /  1013.8hPa North 8.0mph /  12.9km/h 12.0mph /  19.3km/h 88% 0.00in /  0mm
21:04 18.3 °F /  -7.6 °C 15.3 °F /  -9.3 °C 29.94in /  1013.8hPa North 6.0mph /  9.7km/h 12.0mph /  19.3km/h 88% 0.00in /  0mm
21:09 18.3 °F /  -7.6 °C 15.6 °F /  -9.1 °C 29.95in /  1014.1hPa NNE 4.0mph /  6.4km/h 7.0mph /  11.3km/h 89% 0.00in /  0mm
21:14 18.3 °F /  -7.6 °C 15.6 °F /  -9.1 °C 29.95in /  1014.1hPa NNE 5.0mph /  8km/h 8.0mph /  12.9km/h 89% 0.00in /  0mm
21:19 18.3 °F /  -7.6 °C 15.6 °F /  -9.1 °C 29.95in /  1014.1hPa North 6.0mph /  9.7km/h 10.0mph /  16.1km/h 89% 0.00in /  0mm
21:24 18.3 °F /  -7.6 °C 15.6 °F /  -9.1 °C 29.94in /  1013.8hPa North 6.0mph /  9.7km/h 10.0mph /  16.1km/h 89% 0.00in /  0mm
21:29 18.2 °F /  -7.7 °C 15.5 °F /  -9.2 °C 29.94in /  1013.8hPa North 4.0mph /  6.4km/h 11.0mph /  17.7km/h 89% 0.00in /  0mm
21:34 18.0 °F /  -7.8 °C 15.0 °F /  -9.4 °C 29.95in /  1014.1hPa North 6.0mph /  9.7km/h 15.0mph /  24.1km/h 88% 0.00in /  0mm
21:39 17.8 °F /  -7.9 °C 14.8 °F /  -9.6 °C 29.95in /  1014.1hPa North 7.0mph /  11.3km/h 15.0mph /  24.1km/h 88% 0.00in /  0mm
21:44 17.6 °F /  -8 °C 14.7 °F /  -9.6 °C 29.94in /  1013.8hPa North 5.0mph /  8km/h 12.0mph /  19.3km/h 88% 0.00in /  0mm
21:49 17.5 °F /  -8.1 °C 14.6 °F /  -9.7 °C 29.94in /  1013.8hPa NNW 5.0mph /  8km/h 10.0mph /  16.1km/h 88% 0.00in /  0mm
21:59 17.3 °F /  -8.2 °C 14.4 °F /  -9.8 °C 29.94in /  1013.8hPa North 6.0mph /  9.7km/h 12.0mph /  19.3km/h 88% 0.00in /  0mm
22:04 17.1 °F /  -8.3 °C 14.2 °F /  -9.9 °C 29.95in /  1014.1hPa North 6.0mph /  9.7km/h 12.0mph /  19.3km/h 88% 0.00in /  0mm
22:09 17.0 °F /  -8.3 °C 14.1 °F /  -9.9 °C 29.95in /  1014.1hPa NNW 8.0mph /  12.9km/h 8.0mph /  12.9km/h 88% 0.00in /  0mm
22:14 17.0 °F /  -8.3 °C 14.1 °F /  -9.9 °C 29.96in /  1014.4hPa North 4.0mph /  6.4km/h 9.0mph /  14.5km/h 88% 0.00in /  0mm
22:19 16.9 °F /  -8.4 °C 14.0 °F /  -10 °C 29.97in /  1014.8hPa North 2.0mph /  3.2km/h 11.0mph /  17.7km/h 88% 0.00in /  0mm
22:24 16.9 °F /  -8.4 °C 14.0 °F /  -10 °C 29.97in /  1014.8hPa North 5.0mph /  8km/h 10.0mph /  16.1km/h 88% 0.00in /  0mm
22:29 16.8 °F /  -8.4 °C 13.9 °F /  -10.1 °C 29.97in /  1014.8hPa North 5.0mph /  8km/h 11.0mph /  17.7km/h 88% 0.00in /  0mm
22:34 16.8 °F /  -8.4 °C 13.9 °F /  -10.1 °C 29.97in /  1014.8hPa North 3.0mph /  4.8km/h 8.0mph /  12.9km/h 88% 0.00in /  0mm
22:39 16.7 °F /  -8.5 °C 13.8 °F /  -10.1 °C 29.97in /  1014.8hPa NNW 4.0mph /  6.4km/h 8.0mph /  12.9km/h 88% 0.00in /  0mm
22:44 16.7 °F /  -8.5 °C 13.8 °F /  -10.1 °C 29.96in /  1014.4hPa North 6.0mph /  9.7km/h 11.0mph /  17.7km/h 88% 0.00in /  0mm
22:49 16.7 °F /  -8.5 °C 13.8 °F /  -10.1 °C 29.97in /  1014.8hPa NNW 4.0mph /  6.4km/h 13.0mph /  20.9km/h 88% 0.00in /  0mm
22:54 16.6 °F /  -8.6 °C 13.7 °F /  -10.2 °C 29.98in /  1015.1hPa NNW 3.0mph /  4.8km/h 10.0mph /  16.1km/h 88% 0.00in /  0mm
23:04 16.6 °F /  -8.6 °C 13.7 °F /  -10.2 °C 29.98in /  1015.1hPa NNW 5.0mph /  8km/h 10.0mph /  16.1km/h 88% 0.00in /  0mm
23:09 16.6 °F /  -8.6 °C 13.7 °F /  -10.2 °C 29.98in /  1015.1hPa NNW 6.0mph /  9.7km/h 12.0mph /  19.3km/h 88% 0.00in /  0mm
23:14 16.6 °F /  -8.6 °C 13.7 °F /  -10.2 °C 29.98in /  1015.1hPa NNW 5.0mph /  8km/h 12.0mph /  19.3km/h 88% 0.00in /  0mm
23:19 16.7 °F /  -8.5 °C 13.8 °F /  -10.1 °C 29.97in /  1014.8hPa North 10.0mph /  16.1km/h 12.0mph /  19.3km/h 88% 0.00in /  0mm
23:29 16.7 °F /  -8.5 °C 13.8 °F /  -10.1 °C 29.95in /  1014.1hPa NNW 9.0mph /  14.5km/h 10.0mph /  16.1km/h 88% 0.00in /  0mm
23:34 16.8 °F /  -8.4 °C 13.9 °F /  -10.1 °C 29.94in /  1013.8hPa North 6.0mph /  9.7km/h 10.0mph /  16.1km/h 88% 0.00in /  0mm
23:39 16.8 °F /  -8.4 °C 13.9 °F /  -10.1 °C 29.97in /  1014.8hPa North 6.0mph /  9.7km/h 15.0mph /  24.1km/h 88% 0.00in /  0mm
23:49 16.8 °F /  -8.4 °C 13.9 °F /  -10.1 °C 29.98in /  1015.1hPa North 5.0mph /  8km/h 10.0mph /  16.1km/h 88% 0.00in /  0mm
23:54 16.8 °F /  -8.4 °C 13.9 °F /  -10.1 °C 29.97in /  1014.8hPa North 5.0mph /  8km/h 10.0mph /  16.1km/h 88% 0.00in /  0mm
23:59 16.8 °F /  -8.4 °C 13.9 °F /  -10.1 °C 29.97in /  1014.8hPa NNE 5.0mph /  8km/h 9.0mph /  14.5km/h 88% 0.00in /  0mm
Buffalo, New York, USA
Compliments of Weather Underground - 2.25 mb